South Reno (Wolf Run), Nevada Weather observations

Data are for observation ending at time listed.
 Day   Time    Ave.   Ave.  Ave.  Vector   Max.   Stn.    Total    Solar   Ave.  
  of    of     Air    Rel.  Wind   Wind    Wind   Baro.  Precip.   Rad.    Soil  
Year   Day     Temp.  Hum.  Speed  Dir.    Gust   Pres.                    Temp. 
2026   (PST)    F      %     mph   deg.    mph     mb.     in.     W/m2     F   
------------------------------------------------------------------------------
 123    1:50   50.5    76    0.1   232      1.5  99999.0    0.00       1    59.0
 123    2:00   49.9    76    1.2   232      3.9  99999.0    0.00       1    59.0
 123    2:10   49.9    75    0.3   243      1.5  99999.0    0.00       0    59.0
 123    2:20   49.1    77    0.2   243      1.2  99999.0    0.00       0    59.0
 123    2:30   48.0    79    1.3   239      3.5  99999.0    0.00       0    58.9
 123    2:40   47.6    79    0.7   237      1.8  99999.0    0.00       0    58.9
 123    2:50   47.2    80    1.5   237      3.4  99999.0    0.00       0    58.9
 123    3:00   47.3    79    0.1   238      1.2  99999.0    0.00       0    58.9
 123    3:10   47.4    78    0.6   238      1.8  99999.0    0.00       0    58.8
 123    3:20   47.2    78    1.2   238      1.8  99999.0    0.00       0    58.8
 123    3:30   46.9    78    0.5   244      1.8  99999.0    0.00       0    58.8
 123    3:40   46.7    79    0.5   245      1.3  99999.0    0.00       0    58.7
 123    3:50   46.7    80    0.4   245      1.4  99999.0    0.00       0    58.7
 123    4:00   47.0    81    1.9   237      3.3  99999.0    0.00       0    58.7
 123    4:10   48.3    75    2.5   228      4.8  99999.0    0.00       0    58.6
 123    4:20   49.3    72    2.2   218      4.7  99999.0    0.00       0    58.5
 123    4:30   49.1    71    2.7   228      4.5  99999.0    0.00       0    58.5
 123    4:40   48.5    72    1.8   233      2.9  99999.0    0.00       0    58.5
 123    4:50   48.1    72    0.3   242      1.9  99999.0    0.00       0    58.4
 123    5:00   47.5    73    1.2   246      3.2  99999.0    0.00       1    58.4
 123    5:10   47.7    71    3.5   242      7.1  99999.0    0.00       4    58.4
 123    5:20   48.7    69    2.5   242      5.9  99999.0    0.00      10    58.3
 123    5:30   48.7    68    1.0   244      4.5  99999.0    0.00      12    58.3
 123    5:40   49.0    66    0.1   339      1.3  99999.0    0.00      12    58.2
 123    5:50   49.5    64    0.1   339      1.5  99999.0    0.00      13    58.2
 123    6:00   50.5    64    0.4     0      3.0  99999.0    0.00      13    58.1
 123    6:10   50.5    68    0.5    88      3.4  99999.0    0.00      14    58.1
 123    6:20   51.4    69    1.1    99      5.6  99999.0    0.00      15    58.0
 123    6:30   53.8    65    0.8    90      3.5  99999.0    0.00      15    57.9
 123    6:40   55.1    62    0.0     0      0.0  99999.0    0.00      14    57.9
 123    6:50   56.3    61    0.1    88      1.5  99999.0    0.00      14    57.8
 123    7:00   56.5    61    0.5    74      1.8  99999.0    0.00      13    57.8
 123    7:10   55.6    65    0.8    57      2.6  99999.0    0.00      13    57.7
 123    7:20   55.3    66    0.6    50      2.7  99999.0    0.00      14    57.7
 123    7:30   55.7    66    0.5    39      2.4  99999.0    0.00      15    57.7
 123    7:40   56.2    65    0.9    33      2.0  99999.0    0.00      15    57.7
 123    7:50   57.0    62    1.3     9      3.4  99999.0    0.00      15    57.6
 123    8:00   58.0    60    2.0    61      4.2  99999.0    0.00      17    57.6
 123    8:10   58.0    60    2.0    56      4.5  99999.0    0.00      18    57.6
 123    8:20   58.6    59    1.5    31      5.0  99999.0    0.00      22    57.6
 123    8:30   59.0    58    1.4    35      3.7  99999.0    0.00      19    57.6
 123    8:40   59.7    57    2.1    43      4.5  99999.0    0.00      19    57.6
 123    8:50   60.2    53    1.5    26      4.3  99999.0    0.00      19    57.6
 123    9:00   61.1    48    1.3    18      2.6  99999.0    0.00      19    57.6
 123    9:10   61.8    48    1.2    27      3.9  99999.0    0.00      20    57.7
 123    9:20   62.6    45    1.4    16      3.8  99999.0    0.00      22    57.7
 123    9:30   63.6    44    1.5    39      5.0  99999.0    0.00      41    57.7
 123    9:40   63.8    42    2.3    38      6.0  99999.0    0.00      31    57.7
 123    9:50   64.5    40    1.9    28      5.8  99999.0    0.00      21    57.8
 123   10:00   65.4    36    1.8    15      5.5  99999.0    0.00      22    57.8
 123   10:10   65.8    36    1.9    30      5.8  99999.0    0.00      20    57.9
 123   10:20   66.2    35    2.8   359      6.8  99999.0    0.00      21    57.9
 123   10:30   66.2    33    2.9    24      7.5  99999.0    0.00      22    58.0
 123   10:40   66.8    32    1.9    33      5.8  99999.0    0.00      23    58.0
 123   10:50   68.3    31    3.0   340      8.2  99999.0    0.00      25    58.0
 123   11:00   68.4    31    2.6    14      7.2  99999.0    0.00      24    58.1
 123   11:10   68.4    30    3.8     4      7.5  99999.0    0.00      24    58.3
 123   11:20   68.2    30    3.7    11      7.4  99999.0    0.00      24    58.4
 123   11:30   68.7    29    4.4    15      7.7  99999.0    0.00      27    58.6
 123   11:40   68.8    28    3.7    10      7.7  99999.0    0.00      30    58.9
 123   11:50   69.5    28    3.0   359      7.4  99999.0    0.00      30    59.1
 123   12:00   68.9    28    3.1    25      6.9  99999.0    0.00      28    59.3
 123   12:10   69.5    28    4.0   343      9.5  99999.0    0.00      29    59.6
 123   12:20   69.9    29    3.4   345      7.6  99999.0    0.00      28    59.8
 123   12:30   70.9    27    3.6   341      8.4  99999.0    0.00      30    60.0
 123   12:40   71.5    27    3.6   333     10.9  99999.0    0.00      35    60.2
 123   12:50   72.0    26    2.3   334      7.0  99999.0    0.00      51    60.4
 123   13:00   73.8    25    2.2   329     10.1  99999.0    0.00      76    60.5
 123   13:10   74.7    22    3.4   338      8.9  99999.0    0.00      75    60.7
 123   13:20   72.4    20    4.6    18      8.3  99999.0    0.00      70    61.1
 123   13:30   70.7    22    1.0   342      8.6  99999.0    0.00      58    61.4
 123   13:40   68.6    21    6.4   212     13.7  99999.0    0.00      49    61.7
 123   13:50   59.9    39   16.6   202     29.1  99999.0    0.00      60    62.1
 123   14:00   55.5    49   17.3   210     32.2  99999.0    0.00      59    62.3
 123   14:10   55.4    48   20.7   229     35.4  99999.0    0.00      59    62.5
 123   14:20   56.3    45   15.8   236     29.7  99999.0    0.00      59    62.7
 123   14:30   55.3    50   11.3   222     19.2  99999.0    0.00      61    62.8
 123   14:40   54.8    48   10.8   246     26.8  99999.0    0.00      53    62.9
 123   14:50   55.4    45    6.4   239     15.3  99999.0    0.00      49    63.0
 123   15:00   55.8    45    8.6   244     16.5  99999.0    0.00      58    63.0
 123   15:10   55.7    47   10.2   223     22.9  99999.0    0.00      61    63.0
 123   15:20   56.3    46   13.3   228     23.8  99999.0    0.00      67    63.0
 123   15:30   57.8    44   12.2   244     20.0  99999.0    0.00      73    63.0
 123   15:40   58.3    42    9.9   248     20.5  99999.0    0.00      67    63.0
 123   15:50   59.2    40    8.2   238     14.4  99999.0    0.00      66    62.9
 123   16:00   60.3    37    8.7   222     16.6  99999.0    0.00      65    62.9
 123   16:10   57.8    38    9.9   220     18.5  99999.0    0.00      55    62.9
 123   16:20   57.8    38    4.5   214      9.9  99999.0    0.00      54    62.9
 123   16:30   58.1    39    3.4   170      7.2  99999.0    0.00      57    62.8
 123   16:40   57.9    43    1.4   146      5.9  99999.0    0.00      61    62.8
 123   16:50   58.2    43    0.7   350      6.4  99999.0    0.00      64    62.8
 123   17:00   57.7    43    3.5    43      7.8  99999.0    0.00      63    62.8
 123   17:10   56.4    48    5.2    16      9.1  99999.0    0.00      59    62.8
 123   17:20   55.4    51    2.7    10      7.7  99999.0    0.00      55    62.8
 123   17:30   55.5    50    2.0    42      6.4  99999.0    0.00      49    62.7
 123   17:40   55.6    50    0.5    93      4.7  99999.0    0.00      46    62.7
 123   17:50   55.4    50    0.1    98      1.3  99999.0    0.00      36    62.7
 123   18:00   55.1    53    0.0     0      0.0  99999.0    0.00      23    62.7
 123   18:10   54.7    53    0.6   330      2.9  99999.0    0.00       8    62.6
 123   18:20   53.6    60    0.3   324      2.7  99999.0    0.00       8    62.6
 123   18:30   53.2    58    0.6   300      2.9  99999.0    0.00      16    62.6
 123   18:40   54.1    51    1.4   257      6.4  99999.0    0.00      14    62.5
 123   18:50   54.7    49    2.6   104      8.1  99999.0    0.00       5    62.5
 123   19:00   54.0    54    3.2   101      8.0  99999.0    0.00       2    62.4
 123   19:10   53.7    56    2.5    81      5.3  99999.0    0.00       1    62.4
 123   19:20   53.5    57    0.2   112      3.6  99999.0    0.00       1    62.3
 123   19:30   53.1    58    0.6   229      1.8  99999.0    0.00       0    62.3
 123   19:40   52.5    60    0.0   231      1.5  99999.0    0.00       0    62.3
 123   19:50   50.7    67    0.1   213      1.2  99999.0    0.00       0    62.3
 123   20:00   49.5    69    0.0     0      0.0  99999.0    0.00       0    62.2
 123   20:10   48.7    70    0.5   243      2.6  99999.0    0.00       0    62.2
 123   20:20   47.9    74    0.2   249      1.3  99999.0    0.00       0    62.1
 123   20:30   48.2    75    0.4   252      3.6  99999.0    0.00       0    62.0
 123   20:40   48.9    71    2.0   243      4.3  99999.0    0.00       0    61.9
 123   20:50   49.7    66    1.4   260      5.0  99999.0    0.00       0    61.8
 123   21:00   48.8    69    0.3   229      2.0  99999.0    0.00       0    61.7
 123   21:10   48.5    66    0.7   241      1.9  99999.0    0.00       0    61.6
 123   21:20   47.9    66    3.2   237      5.2  99999.0    0.00       0    61.5
 123   21:30   47.7    64    3.9   237      5.9  99999.0    0.00       0    61.4
 123   21:40   47.8    64    3.9   239      6.0  99999.0    0.00       0    61.3
 123   21:50   48.0    62    2.9   231      7.4  99999.0    0.00       0    60.4
 123   22:00   48.1    57    3.9   240      6.6  99999.0    0.00       0    60.2
 123   22:10   48.1    57    1.6   231      3.9  99999.0    0.00       0    60.3
 123   22:20   47.7    58    3.4   240      5.3  99999.0    0.00       1    60.2
 123   22:30   47.8    60    3.1   244      5.4  99999.0    0.00       1    60.2
 123   22:40   47.7    61    0.1   248      2.4  99999.0    0.00       1    60.2
 123   22:50   47.2    62    0.0   244      1.3  99999.0    0.00       1    60.3
 123   23:00   46.6    62    0.1   339      2.7  99999.0    0.00       1    60.2
 123   23:10   47.0    62    0.2   184      1.8  99999.0    0.00       1    60.2
 123   23:20   47.7    59    0.0     0      0.0  99999.0    0.00       1    60.1
 123   23:30   47.6    62    0.0     0      0.0  99999.0    0.00       1    60.0
 123   23:40   47.8    65    0.0   258      0.1  99999.0    0.00       1    59.9
 123   23:50   47.8    64    0.3   203      2.3  99999.0    0.00       1    59.9
 124    0:00   47.7    63    1.7   193      3.8  99999.0    0.00       1    59.8
 124    0:10   48.6    61    0.9   224      2.3  99999.0    0.00       1    59.7
 124    0:20   48.5    63    0.1   320      2.6  99999.0    0.00       1    59.6
 124    0:30   47.9    66    0.2   327      2.9  99999.0    0.00       1    59.6
 124    0:40   47.2    67    0.1   297      2.0  99999.0    0.00       1    59.5
 124    0:50   47.3    69    0.1   277      2.7  99999.0    0.00       1    59.5
 124    1:00   46.7    70    0.0   218      1.5  99999.0    0.00       1    59.4
 124    1:10   46.9    68    0.0     0      0.0  99999.0    0.00       1    59.4
 124    1:20   47.0    68    0.0   197      0.6  99999.0    0.00       1    59.3
 124    1:30   46.7    68    0.0     0      0.0  99999.0    0.00       1    59.3
 124    1:40   45.2    71    0.0     0      0.0  99999.0    0.00       0    59.3

Return to South Reno, Nevada graphs page.


Western Regional Climate Center,wrcc@dri.edu